sensor_id;sensor_type;location;lat;lon;timestamp;pressure;altitude;pressure_sealevel;temperature;humidity
11712;BME280;5912;51.034;6.984;2022-12-07T00:01:38;100250.47;;;2.74;100.00
11712;BME280;5912;51.034;6.984;2022-12-07T00:04:05;100245.28;;;2.74;100.00
11712;BME280;5912;51.034;6.984;2022-12-07T00:06:36;100232.47;;;2.65;100.00
11712;BME280;5912;51.034;6.984;2022-12-07T00:09:03;100202.66;;;2.45;100.00
11712;BME280;5912;51.034;6.984;2022-12-07T00:11:29;100245.59;;;2.71;100.00
11712;BME280;5912;51.034;6.984;2022-12-07T00:13:59;100211.53;;;2.58;100.00
11712;BME280;5912;51.034;6.984;2022-12-07T00:16:28;100219.16;;;2.60;100.00
11712;BME280;5912;51.034;6.984;2022-12-07T00:18:54;100172.16;;;2.31;100.00
11712;BME280;5912;51.034;6.984;2022-12-07T00:21:22;100241.22;;;2.72;100.00
11712;BME280;5912;51.034;6.984;2022-12-07T00:23:48;100234.06;;;2.74;100.00
11712;BME280;5912;51.034;6.984;2022-12-07T00:26:19;100232.13;;;2.76;100.00
11712;BME280;5912;51.034;6.984;2022-12-07T00:28:48;100232.97;;;2.76;100.00
11712;BME280;5912;51.034;6.984;2022-12-07T00:31:15;100236.50;;;2.75;100.00
11712;BME280;5912;51.034;6.984;2022-12-07T00:33:41;100234.91;;;2.74;100.00
11712;BME280;5912;51.034;6.984;2022-12-07T00:36:10;100240.56;;;2.78;100.00
11712;BME280;5912;51.034;6.984;2022-12-07T00:38:36;100238.16;;;2.76;100.00
11712;BME280;5912;51.034;6.984;2022-12-07T00:41:11;100237.97;;;2.78;100.00
11712;BME280;5912;51.034;6.984;2022-12-07T00:43:36;100232.13;;;2.76;100.00
11712;BME280;5912;51.034;6.984;2022-12-07T00:46:02;100226.28;;;2.74;100.00
11712;BME280;5912;51.034;6.984;2022-12-07T00:48:28;100234.91;;;2.74;100.00
11712;BME280;5912;51.034;6.984;2022-12-07T00:50:53;100222.91;;;2.73;100.00
11712;BME280;5912;51.034;6.984;2022-12-07T00:53:19;100209.44;;;2.62;100.00
11712;BME280;5912;51.034;6.984;2022-12-07T00:55:45;100223.06;;;2.72;100.00
11712;BME280;5912;51.034;6.984;2022-12-07T00:58:10;100219.66;;;2.71;100.00
11712;BME280;5912;51.034;6.984;2022-12-07T01:00:37;100225.97;;;2.77;100.00
11712;BME280;5912;51.034;6.984;2022-12-07T01:03:04;100216.25;;;2.71;100.00
11712;BME280;5912;51.034;6.984;2022-12-07T01:05:30;100222.91;;;2.73;100.00
11712;BME280;5912;51.034;6.984;2022-12-07T01:07:55;100228.09;;;2.73;100.00
11712;BME280;5912;51.034;6.984;2022-12-07T01:10:20;100220.47;;;2.72;100.00
11712;BME280;5912;51.034;6.984;2022-12-07T01:12:46;100218.03;;;2.70;100.00
11712;BME280;5912;51.034;6.984;2022-12-07T01:15:11;100217.22;;;2.70;100.00
11712;BME280;5912;51.034;6.984;2022-12-07T01:17:37;100217.22;;;2.70;100.00
11712;BME280;5912;51.034;6.984;2022-12-07T01:20:02;100225.00;;;2.70;100.00
11712;BME280;5912;51.034;6.984;2022-12-07T01:22:28;100223.38;;;2.69;100.00
11712;BME280;5912;51.034;6.984;2022-12-07T01:24:53;100225.19;;;2.68;100.00
11712;BME280;5912;51.034;6.984;2022-12-07T01:27:18;100216.72;;;2.58;100.00
11712;BME280;5912;51.034;6.984;2022-12-07T01:29:44;100225.50;;;2.65;100.00
11712;BME280;5912;51.034;6.984;2022-12-07T01:32:10;100220.31;;;2.65;100.00
11712;BME280;5912;51.034;6.984;2022-12-07T01:34:35;100226.28;;;2.66;100.00
11712;BME280;5912;51.034;6.984;2022-12-07T01:37:00;100222.09;;;2.65;100.00
11712;BME280;5912;51.034;6.984;2022-12-07T01:39:26;100221.28;;;2.64;100.00
11712;BME280;5912;51.034;6.984;2022-12-07T01:41:52;100227.78;;;2.68;100.00
11712;BME280;5912;51.034;6.984;2022-12-07T01:44:25;100223.22;;;2.70;100.00
11712;BME280;5912;51.034;6.984;2022-12-07T01:49:29;100184.63;;;2.59;100.00
11712;BME280;5912;51.034;6.984;2022-12-07T01:52:43;100221.75;;;2.76;100.00
11712;BME280;5912;51.034;6.984;2022-12-07T01:54:44;100190.47;;;2.53;100.00
11712;BME280;5912;51.034;6.984;2022-12-07T01:57:11;100203.59;;;2.68;100.00
11712;BME280;5912;51.034;6.984;2022-12-07T01:59:39;100205.53;;;2.66;100.00
11712;BME280;5912;51.034;6.984;2022-12-07T02:02:08;100211.22;;;2.69;100.00
11712;BME280;5912;51.034;6.984;2022-12-07T02:04:35;100210.72;;;2.66;100.00
11712;BME280;5912;51.034;6.984;2022-12-07T02:07:02;100212.03;;;2.70;100.00
11712;BME280;5912;51.034;6.984;2022-12-07T02:09:28;100211.06;;;2.71;100.00
11712;BME280;5912;51.034;6.984;2022-12-07T02:11:54;100210.22;;;2.70;100.00
11712;BME280;5912;51.034;6.984;2022-12-07T02:14:20;100210.22;;;2.70;100.00
11712;BME280;5912;51.034;6.984;2022-12-07T02:24:57;100196.97;;;2.73;100.00
11712;BME280;5912;51.034;6.984;2022-12-07T02:35:05;100208.47;;;2.71;100.00
11712;BME280;5912;51.034;6.984;2022-12-07T02:40:34;100210.22;;;2.70;100.00
11712;BME280;5912;51.034;6.984;2022-12-07T02:43:29;100201.34;;;2.73;100.00
11712;BME280;5912;51.034;6.984;2022-12-07T02:46:08;100192.72;;;2.72;100.00
11712;BME280;5912;51.034;6.984;2022-12-07T02:48:35;100192.06;;;2.70;100.00
11712;BME280;5912;51.034;6.984;2022-12-07T02:51:22;100190.31;;;2.63;100.00
11712;BME280;5912;51.034;6.984;2022-12-07T02:53:48;100186.75;;;2.64;100.00
11712;BME280;5912;51.034;6.984;2022-12-07T03:05:13;100185.28;;;2.69;100.00
11712;BME280;5912;51.034;6.984;2022-12-07T03:08:12;100200.34;;;2.74;100.00
11712;BME280;5912;51.034;6.984;2022-12-07T03:11:08;100199.72;;;2.72;100.00
11712;BME280;5912;51.034;6.984;2022-12-07T03:13:55;100190.13;;;2.64;100.00
11712;BME280;5912;51.034;6.984;2022-12-07T03:16:34;100200.84;;;2.69;100.00
11712;BME280;5912;51.034;6.984;2022-12-07T03:19:13;100201.50;;;2.71;100.00
11712;BME280;5912;51.034;6.984;2022-12-07T03:21:42;100186.25;;;2.60;100.00
11712;BME280;5912;51.034;6.984;2022-12-07T03:24:14;100182.84;;;2.52;100.00
11712;BME280;5912;51.034;6.984;2022-12-07T03:26:50;100187.38;;;2.58;100.00
11712;BME280;5912;51.034;6.984;2022-12-07T03:29:26;100205.22;;;2.69;100.00
11712;BME280;5912;51.034;6.984;2022-12-07T03:32:00;100198.56;;;2.66;100.00
11712;BME280;5912;51.034;6.984;2022-12-07T03:34:34;100196.16;;;2.65;100.00
11712;BME280;5912;51.034;6.984;2022-12-07T03:37:05;100194.84;;;2.69;100.00
11712;BME280;5912;51.034;6.984;2022-12-07T03:39:35;100200.84;;;2.69;100.00
11712;BME280;5912;51.034;6.984;2022-12-07T03:42:04;100195.97;;;2.66;100.00
11712;BME280;5912;51.034;6.984;2022-12-07T03:44:33;100166.16;;;2.46;100.00
11712;BME280;5912;51.034;6.984;2022-12-07T03:47:29;100200.03;;;2.69;100.00
11712;BME280;5912;51.034;6.984;2022-12-07T03:50:07;100200.03;;;2.69;100.00
11712;BME280;5912;51.034;6.984;2022-12-07T03:53:00;100197.25;;;2.70;100.00
11712;BME280;5912;51.034;6.984;2022-12-07T03:55:34;100204.91;;;2.72;100.00
11712;BME280;5912;51.034;6.984;2022-12-07T03:58:05;100191.94;;;2.72;100.00
11712;BME280;5912;51.034;6.984;2022-12-07T04:00:32;100201.34;;;2.73;100.00
11712;BME280;5912;51.034;6.984;2022-12-07T04:02:57;100200.50;;;2.72;100.00
11712;BME280;5912;51.034;6.984;2022-12-07T04:05:23;100167.78;;;2.55;100.00
11712;BME280;5912;51.034;6.984;2022-12-07T04:07:49;100201.97;;;2.75;100.00
11712;BME280;5912;51.034;6.984;2022-12-07T04:10:14;100182.53;;;2.63;100.00
11712;BME280;5912;51.034;6.984;2022-12-07T04:12:40;100197.25;;;2.70;100.00
11712;BME280;5912;51.034;6.984;2022-12-07T04:15:06;100199.38;;;2.75;100.00
11712;BME280;5912;51.034;6.984;2022-12-07T04:17:32;100202.94;;;2.74;100.00
11712;BME280;5912;51.034;6.984;2022-12-07T04:19:58;100190.13;;;2.72;100.00
11712;BME280;5912;51.034;6.984;2022-12-07T04:22:23;100199.38;;;2.75;100.00
11712;BME280;5912;51.034;6.984;2022-12-07T04:24:49;100198.56;;;2.74;100.00
11712;BME280;5912;51.034;6.984;2022-12-07T04:27:14;100199.22;;;2.76;100.00
11712;BME280;5912;51.034;6.984;2022-12-07T04:29:40;100193.06;;;2.77;100.00
11712;BME280;5912;51.034;6.984;2022-12-07T04:32:08;100189.00;;;2.75;100.00
11712;BME280;5912;51.034;6.984;2022-12-07T04:34:35;100186.25;;;2.76;100.00
11712;BME280;5912;51.034;6.984;2022-12-07T04:37:00;100190.13;;;2.80;100.00
11712;BME280;5912;51.034;6.984;2022-12-07T04:39:36;100193.53;;;2.81;100.00
11712;BME280;5912;51.034;6.984;2022-12-07T04:42:02;100193.06;;;2.77;100.00
11712;BME280;5912;51.034;6.984;2022-12-07T04:44:28;100188.53;;;2.71;100.00
11712;BME280;5912;51.034;6.984;2022-12-07T04:46:55;100196.13;;;2.81;100.00
11712;BME280;5912;51.034;6.984;2022-12-07T04:49:22;100204.88;;;2.80;100.00
11712;BME280;5912;51.034;6.984;2022-12-07T04:51:49;100200.66;;;2.79;100.00
11712;BME280;5912;51.034;6.984;2022-12-07T04:54:17;100186.59;;;2.73;100.00
11712;BME280;5912;51.034;6.984;2022-12-07T04:56:43;100194.19;;;2.75;100.00
11712;BME280;5912;51.034;6.984;2022-12-07T04:59:10;100168.09;;;2.60;100.00
11712;BME280;5912;51.034;6.984;2022-12-07T05:01:36;100177.66;;;2.68;100.00
11712;BME280;5912;51.034;6.984;2022-12-07T05:04:02;100157.91;;;2.51;100.00
11712;BME280;5912;51.034;6.984;2022-12-07T05:06:27;100183.16;;;2.65;100.00
11712;BME280;5912;51.034;6.984;2022-12-07T05:08:53;100185.13;;;2.63;100.00
11712;BME280;5912;51.034;6.984;2022-12-07T05:11:18;100179.44;;;2.59;100.00
11712;BME280;5912;51.034;6.984;2022-12-07T05:14:04;100183.19;;;2.57;100.00
11712;BME280;5912;51.034;6.984;2022-12-07T05:16:30;100184.50;;;2.53;100.00
11712;BME280;5912;51.034;6.984;2022-12-07T05:18:55;100162.25;;;2.42;100.00
11712;BME280;5912;51.034;6.984;2022-12-07T05:21:21;100187.22;;;2.51;100.00
11712;BME280;5912;51.034;6.984;2022-12-07T05:23:46;100186.44;;;2.51;100.00
11712;BME280;5912;51.034;6.984;2022-12-07T05:26:12;100196.47;;;2.54;100.00
11712;BME280;5912;51.034;6.984;2022-12-07T05:28:38;100160.50;;;2.35;100.00
11712;BME280;5912;51.034;6.984;2022-12-07T05:31:03;100196.16;;;2.57;100.00
11712;BME280;5912;51.034;6.984;2022-12-07T05:33:29;100191.63;;;2.59;100.00
11712;BME280;5912;51.034;6.984;2022-12-07T05:35:54;100154.81;;;2.39;100.00
11712;BME280;5912;51.034;6.984;2022-12-07T05:38:20;100183.50;;;2.62;100.00
11712;BME280;5912;51.034;6.984;2022-12-07T05:40:46;100183.19;;;2.57;100.00
11712;BME280;5912;51.034;6.984;2022-12-07T05:43:11;100147.53;;;2.27;100.00
11712;BME280;5912;51.034;6.984;2022-12-07T05:45:37;100189.03;;;2.59;100.00
11712;BME280;5912;51.034;6.984;2022-12-07T05:48:02;100186.59;;;2.57;100.00
11712;BME280;5912;51.034;6.984;2022-12-07T05:50:28;100199.72;;;2.56;100.00
11712;BME280;5912;51.034;6.984;2022-12-07T05:52:54;100184.50;;;2.53;100.00
11712;BME280;5912;51.034;6.984;2022-12-07T05:55:19;100188.03;;;2.52;100.00
11712;BME280;5912;51.034;6.984;2022-12-07T05:57:45;100166.00;;;2.40;100.00
11712;BME280;5912;51.034;6.984;2022-12-07T06:00:31;100161.59;;;2.32;100.00
11712;BME280;5912;51.034;6.984;2022-12-07T06:02:57;100182.34;;;2.48;100.00
11712;BME280;5912;51.034;6.984;2022-12-07T06:05:23;100187.09;;;2.45;100.00
11712;BME280;5912;51.034;6.984;2022-12-07T06:07:48;100179.47;;;2.43;100.00
11712;BME280;5912;51.034;6.984;2022-12-07T06:10:14;100189.34;;;2.40;100.00
11712;BME280;5912;51.034;6.984;2022-12-07T06:12:40;100188.19;;;2.34;100.00
11712;BME280;5912;51.034;6.984;2022-12-07T06:15:08;100172.13;;;2.23;100.00
11712;BME280;5912;51.034;6.984;2022-12-07T06:17:34;100186.56;;;2.17;100.00
11712;BME280;5912;51.034;6.984;2022-12-07T06:23:11;100153.31;;;1.81;100.00
11712;BME280;5912;51.034;6.984;2022-12-07T06:25:37;100184.09;;;1.92;100.00
11712;BME280;5912;51.034;6.984;2022-12-07T06:28:03;100193.97;;;1.88;100.00
11712;BME280;5912;51.034;6.984;2022-12-07T06:30:29;100193.16;;;1.88;100.00
11712;BME280;5912;51.034;6.984;2022-12-07T06:32:55;100193.16;;;1.88;100.00
11712;BME280;5912;51.034;6.984;2022-12-07T06:35:20;100199.13;;;1.88;100.00
11712;BME280;5912;51.034;6.984;2022-12-07T06:37:46;100182.13;;;1.78;100.00
11712;BME280;5912;51.034;6.984;2022-12-07T06:40:11;100200.63;;;1.91;100.00
11712;BME280;5912;51.034;6.984;2022-12-07T06:42:37;100202.91;;;1.94;100.00
11712;BME280;5912;51.034;6.984;2022-12-07T06:45:03;100170.00;;;1.78;100.00
11712;BME280;5912;51.034;6.984;2022-12-07T06:47:28;100182.16;;;1.86;100.00
11712;BME280;5912;51.034;6.984;2022-12-07T06:49:55;100207.44;;;2.08;100.00
11712;BME280;5912;51.034;6.984;2022-12-07T06:52:20;100201.78;;;2.12;100.00
11712;BME280;5912;51.034;6.984;2022-12-07T06:54:46;100188.16;;;2.10;100.00
11712;BME280;5912;51.034;6.984;2022-12-07T06:57:13;100202.44;;;2.14;100.00
11712;BME280;5912;51.034;6.984;2022-12-07T06:59:39;100195.75;;;2.04;100.00
11712;BME280;5912;51.034;6.984;2022-12-07T07:02:05;100193.81;;;1.98;100.00
11712;BME280;5912;51.034;6.984;2022-12-07T07:04:30;100200.94;;;1.96;100.00
11712;BME280;5912;51.034;6.984;2022-12-07T07:06:56;100204.50;;;1.95;100.00
11712;BME280;5912;51.034;6.984;2022-12-07T07:09:22;100202.91;;;1.94;100.00
11712;BME280;5912;51.034;6.984;2022-12-07T07:11:47;100207.75;;;1.97;100.00
11712;BME280;5912;51.034;6.984;2022-12-07T07:14:13;100206.78;;;1.98;100.00
11712;BME280;5912;51.034;6.984;2022-12-07T07:16:41;100211.00;;;1.99;100.00
11712;BME280;5912;51.034;6.984;2022-12-07T07:19:06;100204.19;;;1.98;100.00
11712;BME280;5912;51.034;6.984;2022-12-07T07:21:32;100208.41;;;1.99;100.00
11712;BME280;5912;51.034;6.984;2022-12-07T07:23:58;100210.69;;;2.02;100.00
11712;BME280;5912;51.034;6.984;2022-12-07T07:26:23;100209.72;;;2.03;100.00
11712;BME280;5912;51.034;6.984;2022-12-07T07:28:49;100198.22;;;1.97;100.00
11712;BME280;5912;51.034;6.984;2022-12-07T07:31:14;100204.03;;;2.07;100.00
11712;BME280;5912;51.034;6.984;2022-12-07T07:33:40;100208.44;;;2.07;100.00
11712;BME280;5912;51.034;6.984;2022-12-07T07:36:06;100177.94;;;1.93;100.00
11712;BME280;5912;51.034;6.984;2022-12-07T07:38:31;100209.56;;;2.12;100.00
11712;BME280;5912;51.034;6.984;2022-12-07T07:40:57;100203.91;;;2.17;100.00
11712;BME280;5912;51.034;6.984;2022-12-07T07:43:22;100205.22;;;2.21;100.00
11712;BME280;5912;51.034;6.984;2022-12-07T07:45:48;100164.19;;;2.00;100.00
11712;BME280;5912;51.034;6.984;2022-12-07T07:48:13;100199.69;;;2.24;100.00
11712;BME280;5912;51.034;6.984;2022-12-07T07:50:38;100207.00;;;2.28;100.00
11712;BME280;5912;51.034;6.984;2022-12-07T07:53:05;100209.44;;;2.30;100.00
11712;BME280;5912;51.034;6.984;2022-12-07T07:55:36;100212.69;;;2.32;100.00
11712;BME280;5912;51.034;6.984;2022-12-07T07:58:02;100214.28;;;2.33;100.00
11712;BME280;5912;51.034;6.984;2022-12-07T08:00:28;100168.56;;;2.08;100.00
11712;BME280;5912;51.034;6.984;2022-12-07T08:02:53;100223.06;;;2.40;100.00
11712;BME280;5912;51.034;6.984;2022-12-07T08:05:19;100213.31;;;2.42;100.00
11712;BME280;5912;51.034;6.984;2022-12-07T08:07:44;100201.81;;;2.36;100.00
11712;BME280;5912;51.034;6.984;2022-12-07T08:10:12;100221.44;;;2.47;100.00
11712;BME280;5912;51.034;6.984;2022-12-07T08:12:40;100222.91;;;2.49;100.00
11712;BME280;5912;51.034;6.984;2022-12-07T08:15:27;100220.81;;;2.53;100.00
11712;BME280;5912;51.034;6.984;2022-12-07T08:17:55;100210.59;;;2.43;100.00
11712;BME280;5912;51.034;6.984;2022-12-07T08:20:20;100219.97;;;2.52;100.00
11712;BME280;5912;51.034;6.984;2022-12-07T08:22:46;100218.66;;;2.48;100.00
11712;BME280;5912;51.034;6.984;2022-12-07T08:25:11;100233.91;;;2.51;100.00
11712;BME280;5912;51.034;6.984;2022-12-07T08:27:37;100226.00;;;2.53;100.00
11712;BME280;5912;51.034;6.984;2022-12-07T08:30:03;100190.63;;;2.44;100.00
11712;BME280;5912;51.034;6.984;2022-12-07T08:32:28;100211.38;;;2.68;100.00
11712;BME280;5912;51.034;6.984;2022-12-07T08:34:54;100232.47;;;2.81;100.00
11712;BME280;5912;51.034;6.984;2022-12-07T08:37:19;100210.72;;;2.74;100.00
11712;BME280;5912;51.034;6.984;2022-12-07T08:39:45;100203.59;;;2.68;100.00
11712;BME280;5912;51.034;6.984;2022-12-07T08:42:11;100232.28;;;2.90;100.00
11712;BME280;5912;51.034;6.984;2022-12-07T08:44:36;100241.03;;;2.97;100.00
11712;BME280;5912;51.034;6.984;2022-12-07T08:47:04;100238.44;;;3.05;100.00
11712;BME280;5912;51.034;6.984;2022-12-07T08:49:39;100234.72;;;3.08;100.00
11712;BME280;5912;51.034;6.984;2022-12-07T08:52:07;100222.84;;;2.97;100.00
11712;BME280;5912;51.034;6.984;2022-12-07T08:54:34;100246.38;;;3.12;100.00
11712;BME280;5912;51.034;6.984;2022-12-07T08:57:02;100196.13;;;2.89;100.00
11712;BME280;5912;51.034;6.984;2022-12-07T08:59:29;100228.84;;;3.14;100.00
11712;BME280;5912;51.034;6.984;2022-12-07T09:01:54;100232.22;;;3.31;100.00
11712;BME280;5912;51.034;6.984;2022-12-07T09:04:20;100236.56;;;3.46;100.00
11712;BME280;5912;51.034;6.984;2022-12-07T09:06:46;100231.34;;;3.54;100.00
11712;BME280;5912;51.034;6.984;2022-12-07T09:09:12;100205.72;;;3.43;100.00
11712;BME280;5912;51.034;6.984;2022-12-07T09:11:39;100217.88;;;3.51;100.00
11712;BME280;5912;51.034;6.984;2022-12-07T09:14:05;100236.84;;;3.59;100.00
11712;BME280;5912;51.034;6.984;2022-12-07T09:16:30;100241.06;;;3.60;100.00
11712;BME280;5912;51.034;6.984;2022-12-07T09:18:56;100237.28;;;3.63;100.00
11712;BME280;5912;51.034;6.984;2022-12-07T09:21:21;100209.91;;;3.52;100.00
11712;BME280;5912;51.034;6.984;2022-12-07T09:23:47;100232.91;;;3.63;100.00
11712;BME280;5912;51.034;6.984;2022-12-07T09:26:13;100233.44;;;3.59;100.00
11712;BME280;5912;51.034;6.984;2022-12-07T09:28:38;100236.38;;;3.56;100.00
11712;BME280;5912;51.034;6.984;2022-12-07T09:34:09;100216.78;;;3.37;100.00
11712;BME280;5912;51.034;6.984;2022-12-07T09:36:35;100210.94;;;3.35;100.00
11712;BME280;5912;51.034;6.984;2022-12-07T09:39:03;100236.69;;;3.61;100.00
11712;BME280;5912;51.034;6.984;2022-12-07T09:41:49;100238.44;;;3.68;100.00
11712;BME280;5912;51.034;6.984;2022-12-07T09:44:23;100237.41;;;3.77;100.00
11712;BME280;5912;51.034;6.984;2022-12-07T09:46:49;100225.03;;;3.87;100.00
11712;BME280;5912;51.034;6.984;2022-12-07T09:49:21;100232.69;;;4.11;100.00
11712;BME280;5912;51.034;6.984;2022-12-07T09:52:27;100228.53;;;4.25;100.00
11712;BME280;5912;51.034;6.984;2022-12-07T09:54:54;100224.44;;;4.30;100.00
11712;BME280;5912;51.034;6.984;2022-12-07T09:57:27;100228.06;;;4.44;100.00
11712;BME280;5912;51.034;6.984;2022-12-07T09:59:56;100203.63;;;4.30;98.99
11712;BME280;5912;51.034;6.984;2022-12-07T10:02:47;100227.63;;;4.40;98.85
11712;BME280;5912;51.034;6.984;2022-12-07T10:10:29;100198.03;;;4.41;99.17
11712;BME280;5912;51.034;6.984;2022-12-07T10:12:56;100217.31;;;4.47;99.33
11712;BME280;5912;51.034;6.984;2022-12-07T10:15:22;100212.28;;;4.45;98.99
11712;BME280;5912;51.034;6.984;2022-12-07T10:17:51;100185.59;;;4.29;98.89
11712;BME280;5912;51.034;6.984;2022-12-07T10:20:35;100212.63;;;4.42;99.50
11712;BME280;5912;51.034;6.984;2022-12-07T10:26:29;100204.47;;;4.45;99.04
11712;BME280;5912;51.034;6.984;2022-12-07T10:28:58;100203.34;;;4.48;99.34
11712;BME280;5912;51.034;6.984;2022-12-07T10:31:24;100202.53;;;4.47;99.19
11712;BME280;5912;51.034;6.984;2022-12-07T10:33:52;100201.38;;;4.50;99.15
11712;BME280;5912;51.034;6.984;2022-12-07T10:36:33;100195.19;;;4.51;98.93
11712;BME280;5912;51.034;6.984;2022-12-07T10:42:27;100186.00;;;4.78;99.30
11712;BME280;5912;51.034;6.984;2022-12-07T10:45:09;100188.63;;;4.92;98.44
11712;BME280;5912;51.034;6.984;2022-12-07T10:52:58;100181.38;;;5.02;95.48
11712;BME280;5912;51.034;6.984;2022-12-07T10:55:39;100179.84;;;5.08;96.32
11712;BME280;5912;51.034;6.984;2022-12-07T11:00:46;100154.22;;;4.97;94.34
11712;BME280;5912;51.034;6.984;2022-12-07T11:03:44;100175.63;;;5.07;93.51
11712;BME280;5912;51.034;6.984;2022-12-07T11:09:38;100161.69;;;5.14;92.97
11712;BME280;5912;51.034;6.984;2022-12-07T11:15:36;100142.66;;;5.14;93.51
11712;BME280;5912;51.034;6.984;2022-12-07T11:18:09;100146.50;;;5.32;93.81
11712;BME280;5912;51.034;6.984;2022-12-07T11:24:14;100147.34;;;5.33;92.31
11712;BME280;5912;51.034;6.984;2022-12-07T11:37:55;100130.34;;;4.93;93.56
11712;BME280;5912;51.034;6.984;2022-12-07T11:40:36;100127.22;;;4.98;94.40
11712;BME280;5912;51.034;6.984;2022-12-07T11:43:28;100130.25;;;5.16;94.58
11712;BME280;5912;51.034;6.984;2022-12-07T11:46:04;100133.22;;;5.27;95.53
11712;BME280;5912;51.034;6.984;2022-12-07T11:51:37;100117.66;;;5.84;92.54
11712;BME280;5912;51.034;6.984;2022-12-07T11:54:21;100121.75;;;6.35;92.28
11712;BME280;5912;51.034;6.984;2022-12-07T11:56:50;100119.25;;;6.48;89.52
11712;BME280;5912;51.034;6.984;2022-12-07T11:59:42;100116.78;;;6.40;88.92
11712;BME280;5912;51.034;6.984;2022-12-07T12:05:32;100115.31;;;6.10;86.64
11712;BME280;5912;51.034;6.984;2022-12-07T12:11:00;100101.94;;;6.41;87.13
11712;BME280;5912;51.034;6.984;2022-12-07T12:21:41;100097.28;;;6.36;85.41
11712;BME280;5912;51.034;6.984;2022-12-07T12:24:18;100083.50;;;6.21;86.02
11712;BME280;5912;51.034;6.984;2022-12-07T12:27:07;100102.97;;;6.25;86.90
11712;BME280;5912;51.034;6.984;2022-12-07T12:29:36;100097.16;;;6.23;86.84
11712;BME280;5912;51.034;6.984;2022-12-07T12:32:11;100091.19;;;6.08;85.29
11712;BME280;5912;51.034;6.984;2022-12-07T12:34:57;100100.78;;;6.01;85.92
11712;BME280;5912;51.034;6.984;2022-12-07T12:37:39;100089.97;;;6.04;87.10
11712;BME280;5912;51.034;6.984;2022-12-07T12:48:56;100086.75;;;5.66;86.14
11712;BME280;5912;51.034;6.984;2022-12-07T12:51:41;100084.22;;;5.73;86.72
11712;BME280;5912;51.034;6.984;2022-12-07T12:54:34;100081.84;;;5.92;88.14
11712;BME280;5912;51.034;6.984;2022-12-07T13:02:39;100069.06;;;6.53;85.86
11712;BME280;5912;51.034;6.984;2022-12-07T13:46:44;100038.97;;;4.88;88.15
11712;BME280;5912;51.034;6.984;2022-12-07T13:49:21;100028.00;;;4.78;88.67
11712;BME280;5912;51.034;6.984;2022-12-07T13:51:48;100032.84;;;4.67;88.35
11712;BME280;5912;51.034;6.984;2022-12-07T13:54:14;100023.06;;;4.54;88.79
11712;BME280;5912;51.034;6.984;2022-12-07T13:56:41;100026.03;;;4.51;89.79
11712;BME280;5912;51.034;6.984;2022-12-07T13:59:21;100032.31;;;4.42;90.27
11712;BME280;5912;51.034;6.984;2022-12-07T14:01:49;100020.53;;;4.31;91.33
11712;BME280;5912;51.034;6.984;2022-12-07T14:11:21;100016.41;;;4.22;92.54
11712;BME280;5912;51.034;6.984;2022-12-07T14:14:02;100025.53;;;4.18;92.68
11712;BME280;5912;51.034;6.984;2022-12-07T14:23:27;100010.28;;;4.15;94.19
11712;BME280;5912;51.034;6.984;2022-12-07T15:15:08;99958.41;;;3.70;97.69
11712;BME280;5912;51.034;6.984;2022-12-07T15:17:34;99975.63;;;3.86;97.90
11712;BME280;5912;51.034;6.984;2022-12-07T15:20:00;99978.59;;;3.83;98.12
11712;BME280;5912;51.034;6.984;2022-12-07T15:22:27;99935.44;;;3.59;98.07
11712;BME280;5912;51.034;6.984;2022-12-07T15:24:54;99971.16;;;3.80;98.19
11712;BME280;5912;51.034;6.984;2022-12-07T15:27:20;99981.91;;;3.77;98.26
11712;BME280;5912;51.034;6.984;2022-12-07T15:29:45;99977.22;;;3.72;96.71
11712;BME280;5912;51.034;6.984;2022-12-07T15:32:10;99909.25;;;3.24;95.35
11712;BME280;5912;51.034;6.984;2022-12-07T15:34:36;99964.09;;;3.51;93.49
11712;BME280;5912;51.034;6.984;2022-12-07T15:37:01;99967.53;;;3.44;93.79
11712;BME280;5912;51.034;6.984;2022-12-07T15:39:26;99955.66;;;3.27;94.65
11712;BME280;5912;51.034;6.984;2022-12-07T15:41:52;99963.38;;;3.12;95.21
11712;BME280;5912;51.034;6.984;2022-12-07T15:44:17;99961.16;;;3.01;95.23
11712;BME280;5912;51.034;6.984;2022-12-07T15:47:01;99958.47;;;2.86;95.91
11712;BME280;5912;51.034;6.984;2022-12-07T15:49:27;99971.00;;;2.83;96.78
11712;BME280;5912;51.034;6.984;2022-12-07T15:51:52;99968.47;;;2.75;97.05
11712;BME280;5912;51.034;6.984;2022-12-07T15:56:48;99968.50;;;2.67;98.05
11712;BME280;5912;51.034;6.984;2022-12-07T15:59:14;99972.03;;;2.66;97.39
11712;BME280;5912;51.034;6.984;2022-12-07T16:01:39;99966.25;;;2.64;98.60
11712;BME280;5912;51.034;6.984;2022-12-07T16:04:05;99967.53;;;2.60;98.96
11712;BME280;5912;51.034;6.984;2022-12-07T16:06:31;99966.88;;;2.58;97.77
11712;BME280;5912;51.034;6.984;2022-12-07T16:08:56;99964.66;;;2.47;98.01
11712;BME280;5912;51.034;6.984;2022-12-07T16:11:22;99950.63;;;2.33;98.82
11712;BME280;5912;51.034;6.984;2022-12-07T16:13:47;99963.91;;;2.38;98.97
11712;BME280;5912;51.034;6.984;2022-12-07T16:16:14;99959.84;;;2.36;100.00
11712;BME280;5912;51.034;6.984;2022-12-07T16:18:42;99964.06;;;2.37;99.75
11712;BME280;5912;51.034;6.984;2022-12-07T16:21:07;99963.25;;;2.36;100.00
11712;BME280;5912;51.034;6.984;2022-12-07T16:23:33;99966.81;;;2.43;100.00
11712;BME280;5912;51.034;6.984;2022-12-07T16:26:18;99961.09;;;2.48;100.00
11712;BME280;5912;51.034;6.984;2022-12-07T16:28:44;99960.94;;;2.49;100.00
11712;BME280;5912;51.034;6.984;2022-12-07T16:31:14;99953.34;;;2.48;100.00
11712;BME280;5912;51.034;6.984;2022-12-07T16:33:41;99952.66;;;2.54;100.00
11712;BME280;5912;51.034;6.984;2022-12-07T16:36:08;99959.63;;;2.53;100.00
11712;BME280;5912;51.034;6.984;2022-12-07T16:38:35;99963.34;;;2.59;100.00
11712;BME280;5912;51.034;6.984;2022-12-07T16:41:01;99964.94;;;2.60;100.00
11712;BME280;5912;51.034;6.984;2022-12-07T16:43:26;99958.63;;;2.62;100.00
11712;BME280;5912;51.034;6.984;2022-12-07T16:45:51;99956.03;;;2.62;100.00
11712;BME280;5912;51.034;6.984;2022-12-07T16:48:17;99928.34;;;2.47;100.00
11712;BME280;5912;51.034;6.984;2022-12-07T16:50:43;99952.28;;;2.65;100.00
11712;BME280;5912;51.034;6.984;2022-12-07T16:53:10;99950.50;;;2.65;100.00